Time;durP1;ratioP1;P1;durP2;ratioP2;P2;SDS_P1;SDS_P2;PMS_P1;PMS_P2;Temp;Humidity;BMP_temperature;BMP_pressure;BME280_temperature;BME280_humidity;BME280_pressure;Samples;Min_cycle;Max_cycle;Signal;HPM_P1;HPM_P2
2022/07/01 00:01:41;;;;;;;21.52;18.88;;;;;;;16.38;82.34;101523.75;5000906;28;20029;-46
2022/07/01 00:04:06;;;;;;;19.85;17.85;;;;;;;16.36;82.43;101536.72;5002329;28;20037;-46
2022/07/01 00:06:32;;;;;;;19.70;17.63;;;;;;;16.32;82.82;101553.97;5003375;28;20062;-46
2022/07/01 00:08:58;;;;;;;19.73;16.75;;;;;;;16.26;82.48;101552.97;5004873;28;20041;-45
2022/07/01 00:11:23;;;;;;;18.38;16.48;;;;;;;16.28;81.73;101551.31;5010449;28;21136;-51
2022/07/01 00:13:49;;;;;;;18.90;16.65;;;;;;;16.24;82.51;101546.91;5002683;28;20021;-48
2022/07/01 00:16:14;;;;;;;17.77;15.90;;;;;;;16.23;82.03;101543.44;5008848;28;20048;-50
2022/07/01 00:18:39;;;;;;;16.73;14.93;;;;;;;16.19;81.41;101538.16;5006133;28;20049;-49
2022/07/01 00:21:05;;;;;;;15.93;14.30;;;;;;;16.10;81.66;101536.31;5012177;28;20029;-45
2022/07/01 00:23:31;;;;;;;18.67;14.93;;;;;;;16.11;82.17;101532.88;5008924;28;20034;-48
2022/07/01 00:25:57;;;;;;;16.17;13.80;;;;;;;16.13;81.86;101533.75;5002977;28;20030;-45
2022/07/01 00:28:22;;;;;;;18.55;13.50;;;;;;;16.10;81.65;101536.31;5004345;28;20041;-45
2022/07/01 00:30:47;;;;;;;15.63;13.52;;;;;;;16.06;81.51;101532.78;5008961;28;20021;-50
2022/07/01 00:33:13;;;;;;;15.65;12.45;;;;;;;16.06;81.48;101537.09;5010938;28;20029;-47
2022/07/01 00:35:38;;;;;;;15.50;12.05;;;;;;;16.01;81.85;101539.59;5003435;28;20037;-47
2022/07/01 00:38:04;;;;;;;14.25;12.55;;;;;;;15.96;81.97;101536.09;5010582;28;20033;-46
2022/07/01 00:40:29;;;;;;;13.20;11.40;;;;;;;15.96;81.55;101524.84;5001388;28;20064;-48
2022/07/01 00:42:55;;;;;;;14.77;11.60;;;;;;;15.92;81.87;101517.84;5005842;28;20040;-47
2022/07/01 00:45:20;;;;;;;14.38;11.18;;;;;;;15.89;81.61;101517.78;5001137;28;20033;-48
2022/07/01 00:47:46;;;;;;;13.10;11.10;;;;;;;15.82;82.44;101512.50;5004405;28;20117;-50
2022/07/01 00:50:15;;;;;;;15.93;11.65;;;;;;;15.86;82.27;101513.44;5003731;28;20692;-46
2022/07/01 00:52:42;;;;;;;15.98;12.18;;;;;;;15.76;82.25;101507.22;5003722;28;20029;-50
2022/07/01 00:55:12;;;;;;;14.90;12.15;;;;;;;15.72;83.04;101521.00;5003277;28;22024;-48
2022/07/01 00:57:43;;;;;;;18.25;13.80;;;;;;;15.82;83.05;101517.69;5005068;28;20088;-45
2022/07/01 01:00:15;;;;;;;19.85;15.63;;;;;;;15.79;82.79;101522.84;5005051;28;20033;-47
2022/07/01 01:02:40;;;;;;;19.75;15.70;;;;;;;15.80;83.01;101531.47;5000639;28;20088;-48
2022/07/01 01:05:07;;;;;;;22.42;18.23;;;;;;;15.80;83.20;101524.56;5008033;28;20021;-47
2022/07/01 01:07:33;;;;;;;20.95;17.40;;;;;;;15.79;82.64;101524.56;5002234;28;20040;-48
2022/07/01 01:10:00;;;;;;;21.33;17.90;;;;;;;15.68;83.61;101529.53;5000291;28;21530;-49
2022/07/01 01:12:26;;;;;;;22.55;17.58;;;;;;;15.78;83.25;101535.78;5001764;28;20421;-51
2022/07/01 01:14:52;;;;;;;21.50;17.45;;;;;;;15.75;83.73;101543.50;5000722;28;20033;-49
2022/07/01 01:17:18;;;;;;;24.60;18.48;;;;;;;15.77;83.62;101544.38;5009404;28;20033;-48
2022/07/01 01:19:44;;;;;;;23.58;18.02;;;;;;;15.77;84.07;101549.56;5005211;28;20048;-49
2022/07/01 01:22:13;;;;;;;25.05;18.58;;;;;;;15.70;84.54;101553.78;5017083;28;20041;-48
2022/07/01 01:24:38;;;;;;;23.65;17.27;;;;;;;15.71;84.82;101567.59;5006138;28;20042;-48
2022/07/01 01:27:04;;;;;;;23.15;17.55;;;;;;;15.72;84.24;101566.78;5005504;28;20064;-47
2022/07/01 01:29:30;;;;;;;22.45;17.67;;;;;;;15.69;84.70;101566.72;5004876;28;20041;-48
2022/07/01 01:31:55;;;;;;;24.65;18.90;;;;;;;15.71;85.54;101576.28;4998745;28;20037;-46
2022/07/01 01:34:21;;;;;;;24.00;17.77;;;;;;;15.75;84.52;101575.47;5010707;28;20387;-49
2022/07/01 01:36:46;;;;;;;25.42;18.40;;;;;;;15.74;83.42;101565.94;5008416;28;20029;-45
2022/07/01 01:39:17;;;;;;;23.90;19.00;;;;;;;15.78;84.68;101564.31;5002388;28;20116;-48
2022/07/01 01:41:44;;;;;;;23.80;17.50;;;;;;;15.73;84.18;101558.16;5007208;28;20038;-48
2022/07/01 01:44:09;;;;;;;25.75;18.27;;;;;;;15.72;84.89;101553.81;5001257;28;20508;-45
2022/07/01 01:46:36;;;;;;;22.58;18.27;;;;;;;15.67;84.95;101558.03;5004183;28;20084;-48
2022/07/01 01:49:02;;;;;;;23.65;18.52;;;;;;;15.68;84.72;101570.16;5008121;28;20406;-45
2022/07/01 01:51:28;;;;;;;21.50;16.88;;;;;;;15.68;85.02;101571.03;5008469;28;20505;-47
2022/07/01 01:53:54;;;;;;;20.30;16.75;;;;;;;15.72;84.01;101567.66;5006499;28;20048;-45
2022/07/01 01:56:19;;;;;;;22.55;16.92;;;;;;;15.71;83.69;101565.91;5004422;28;20044;-48
2022/07/01 01:58:44;;;;;;;25.30;16.75;;;;;;;15.70;85.16;101560.69;5006136;28;20463;-45
2022/07/01 02:01:11;;;;;;;21.98;16.90;;;;;;;15.71;84.69;101559.81;5010407;28;20115;-47
2022/07/01 02:03:37;;;;;;;21.30;16.73;;;;;;;15.75;85.15;101564.22;5002285;28;20509;-45
2022/07/01 02:06:03;;;;;;;22.00;16.42;;;;;;;15.75;84.51;101564.22;5005336;28;20034;-46
2022/07/01 02:08:29;;;;;;;19.65;16.58;;;;;;;15.75;84.35;101565.09;5009851;28;20060;-47
2022/07/01 02:10:54;;;;;;;25.65;18.05;;;;;;;15.73;84.07;101560.75;5001350;28;20542;-46
2022/07/01 02:13:20;;;;;;;21.80;18.02;;;;;;;15.72;84.22;101572.84;5009204;28;20120;-47
2022/07/01 02:15:45;;;;;;;22.02;17.38;;;;;;;15.70;84.65;101584.88;5004385;28;20095;-46
2022/07/01 02:18:11;;;;;;;21.85;16.98;;;;;;;15.67;84.53;101590.03;5004546;28;20617;-46
2022/07/01 02:20:36;;;;;;;23.38;16.77;;;;;;;15.71;85.28;101590.94;5007244;28;20490;-46
2022/07/01 02:23:01;;;;;;;23.17;16.92;;;;;;;15.68;85.48;101596.09;5019438;28;20549;-47
2022/07/01 02:25:27;;;;;;;23.75;16.42;;;;;;;15.62;84.95;101596.84;5007556;28;20528;-47
2022/07/01 02:27:52;;;;;;;24.77;17.85;;;;;;;15.67;85.04;101604.72;5003012;28;20034;-48
2022/07/01 02:30:18;;;;;;;25.80;19.50;;;;;;;15.66;84.54;101621.13;5013367;28;20025;-47
2022/07/01 02:32:43;;;;;;;24.13;18.23;;;;;;;15.65;84.70;101622.84;5011425;28;20088;-49
2022/07/01 02:35:10;;;;;;;23.70;19.42;;;;;;;15.68;84.76;101609.06;5014548;28;20061;-49
2022/07/01 02:37:35;;;;;;;23.30;19.13;;;;;;;15.65;85.41;101591.72;5006471;28;20507;-46
2022/07/01 02:40:01;;;;;;;25.42;18.88;;;;;;;15.65;84.40;101576.16;5010639;28;20239;-50
2022/07/01 02:42:26;;;;;;;23.83;19.35;;;;;;;15.63;84.92;101564.00;5005768;28;20115;-45
2022/07/01 02:44:55;;;;;;;25.70;19.42;;;;;;;15.64;84.48;101570.94;5013618;28;20478;-48
2022/07/01 02:47:22;;;;;;;25.00;19.42;;;;;;;15.66;84.73;101577.91;5007805;28;20045;-46
2022/07/01 02:49:48;;;;;;;25.35;20.02;;;;;;;15.65;84.47;101583.03;5003675;28;20037;-51
2022/07/01 02:52:15;;;;;;;25.10;20.30;;;;;;;15.60;84.70;101582.09;5015461;28;20025;-45
2022/07/01 02:54:41;;;;;;;29.20;20.90;;;;;;;15.62;84.68;101588.16;5012594;28;20380;-47
2022/07/01 02:57:06;;;;;;;28.42;21.08;;;;;;;15.65;84.94;101593.41;5006178;28;20036;-50
2022/07/01 02:59:31;;;;;;;26.27;20.13;;;;;;;15.61;85.09;101592.47;5002972;28;20052;-50
2022/07/01 03:01:57;;;;;;;29.17;21.45;;;;;;;15.61;84.89;101595.06;5010846;28;20132;-47
2022/07/01 03:04:22;;;;;;;28.40;21.70;;;;;;;15.60;85.03;101595.91;5008257;28;20410;-47
2022/07/01 03:06:48;;;;;;;31.30;22.20;;;;;;;15.61;85.35;101591.59;5008449;28;20430;-48
2022/07/01 03:09:13;;;;;;;30.38;22.67;;;;;;;15.66;84.49;101593.47;5007316;28;20034;-48
2022/07/01 03:11:38;;;;;;;30.92;23.52;;;;;;;15.61;84.60;101599.38;5011138;28;20049;-48
2022/07/01 03:14:04;;;;;;;34.33;24.88;;;;;;;15.60;84.64;101597.63;5008367;28;20065;-48
2022/07/01 03:16:29;;;;;;;32.45;25.08;;;;;;;15.59;84.57;101596.72;5011168;28;20386;-45
2022/07/01 03:18:54;;;;;;;33.83;24.80;;;;;;;15.62;84.61;101601.13;5005081;28;20395;-50
2022/07/01 03:21:20;;;;;;;33.88;25.58;;;;;;;15.53;84.81;101618.25;5023194;28;20043;-51
2022/07/01 03:23:45;;;;;;;36.15;26.75;;;;;;;15.60;84.89;101610.59;5013996;28;20075;-46
2022/07/01 03:26:11;;;;;;;33.75;25.10;;;;;;;15.56;84.80;101607.94;5014003;28;20547;-45
2022/07/01 03:28:36;;;;;;;32.55;24.52;;;;;;;15.55;84.79;101594.94;5009080;28;20032;-48
2022/07/01 03:31:01;;;;;;;34.10;24.23;;;;;;;15.51;85.20;101599.19;5008785;28;20026;-46
2022/07/01 03:33:27;;;;;;;32.03;24.27;;;;;;;15.50;85.63;101601.75;5013556;28;20040;-47
2022/07/01 03:35:53;;;;;;;34.83;24.38;;;;;;;15.49;85.59;101600.88;5006538;28;20033;-48
2022/07/01 03:38:18;;;;;;;32.58;24.15;;;;;;;15.52;85.62;101615.59;5011440;28;20041;-45
2022/07/01 03:40:44;;;;;;;31.05;23.17;;;;;;;15.52;86.08;101616.47;5006122;28;20069;-45
2022/07/01 03:43:10;;;;;;;28.83;22.48;;;;;;;15.55;85.09;101632.09;5007599;28;20425;-45
2022/07/01 03:45:35;;;;;;;29.67;21.70;;;;;;;15.53;86.57;101631.22;5011101;28;20065;-51
2022/07/01 03:48:02;;;;;;;30.35;21.67;;;;;;;15.55;85.72;101626.94;5008234;28;20482;-46
2022/07/01 03:50:28;;;;;;;26.90;21.00;;;;;;;15.55;85.80;101637.28;5007881;28;20057;-46
2022/07/01 03:54:29;;;;;;;26.77;21.52;;;;;;;15.56;86.97;101643.34;5004047;28;20176;-45
2022/07/01 03:55:39;;;;;;;27.27;21.65;;;;;;;15.54;86.20;101645.91;5008421;28;20046;-47
2022/07/01 03:58:05;;;;;;;29.95;22.33;;;;;;;15.54;85.45;101660.59;5011965;28;20730;-47
2022/07/01 04:00:35;;;;;;;28.50;22.27;;;;;;;15.54;86.29;101658.88;5007703;28;20040;-51
2022/07/01 04:03:01;;;;;;;28.58;21.73;;;;;;;15.54;85.24;101666.66;5007017;28;20757;-45
2022/07/01 04:05:26;;;;;;;28.63;21.77;;;;;;;15.48;85.61;101663.94;5010345;28;20029;-47
2022/07/01 04:07:52;;;;;;;30.08;22.05;;;;;;;15.46;86.01;101668.19;5007850;28;20037;-50
2022/07/01 04:10:17;;;;;;;28.42;21.00;;;;;;;15.49;86.25;101665.69;5012661;28;20594;-45
2022/07/01 04:12:43;;;;;;;32.00;20.88;;;;;;;15.48;86.23;101660.47;5005924;28;20045;-48
2022/07/01 04:15:09;;;;;;;29.63;21.23;;;;;;;15.46;85.39;101659.53;5005192;28;20108;-45
2022/07/01 04:17:35;;;;;;;28.30;20.60;;;;;;;15.45;85.93;101671.63;5013393;28;20053;-46
2022/07/01 04:20:00;;;;;;;29.85;22.30;;;;;;;15.48;85.74;101663.94;5014669;28;20061;-51
2022/07/01 04:22:35;;;;;;;31.83;20.77;;;;;;;15.48;86.14;101663.94;5015583;28;20038;-50
2022/07/01 04:25:03;;;;;;;30.65;20.98;;;;;;;15.38;85.19;101677.53;5009291;28;20037;-46
2022/07/01 04:27:29;;;;;;;27.08;21.00;;;;;;;15.28;85.45;101671.28;5013194;28;20433;-50
2022/07/01 04:29:55;;;;;;;29.02;22.48;;;;;;;15.32;84.51;101666.16;5014928;28;20033;-48
2022/07/01 04:32:20;;;;;;;33.55;22.98;;;;;;;15.29;84.24;101659.22;5015604;28;20042;-48
2022/07/01 04:34:46;;;;;;;32.28;22.85;;;;;;;15.30;84.16;101660.97;4993841;28;20034;-48
2022/07/01 04:37:12;;;;;;;31.00;22.10;;;;;;;15.30;84.93;101660.97;5004400;28;20060;-51
2022/07/01 04:39:37;;;;;;;33.72;22.73;;;;;;;15.27;84.99;101661.75;5009484;28;20098;-51
2022/07/01 04:42:03;;;;;;;32.58;23.20;;;;;;;15.28;84.39;101671.28;5011986;28;20034;-48
2022/07/01 04:44:31;;;;;;;30.02;23.23;;;;;;;15.27;84.93;101671.25;5006814;28;20037;-50
2022/07/01 04:46:57;;;;;;;34.92;24.45;;;;;;;15.31;85.03;101677.38;5003785;28;20036;-46
2022/07/01 04:49:23;;;;;;;30.98;24.02;;;;;;;15.26;85.64;101687.63;5005474;28;20514;-50
2022/07/01 04:51:49;;;;;;;33.13;23.30;;;;;;;15.30;85.31;101684.28;5012447;28;20026;-49
2022/07/01 04:54:15;;;;;;;32.30;24.27;;;;;;;15.29;84.12;101680.81;5010078;28;20108;-47
2022/07/01 04:56:40;;;;;;;37.42;25.55;;;;;;;15.33;84.67;101678.28;5004681;28;20738;-50
2022/07/01 04:59:06;;;;;;;32.63;23.23;;;;;;;15.29;84.05;101670.44;5011219;28;20042;-49
2022/07/01 05:01:31;;;;;;;33.70;23.42;;;;;;;15.30;84.49;101671.31;5036469;28;20029;-47
2022/07/01 05:03:58;;;;;;;31.80;22.77;;;;;;;15.34;84.06;101675.72;5011119;28;20048;-48
2022/07/01 05:06:23;;;;;;;34.65;22.65;;;;;;;15.36;83.65;101675.78;5006123;28;20025;-48
2022/07/01 05:08:49;;;;;;;31.55;22.33;;;;;;;15.40;84.30;101668.06;5004556;28;20529;-49
2022/07/01 05:11:14;;;;;;;30.92;22.30;;;;;;;15.36;84.14;101670.59;5003624;28;20087;-50
2022/07/01 05:13:40;;;;;;;30.58;21.90;;;;;;;15.32;84.36;101673.94;5020670;28;20033;-51
2022/07/01 05:16:06;;;;;;;30.98;21.83;;;;;;;15.35;84.74;101685.25;5005924;28;20049;-48
2022/07/01 05:23:59;;;;;;;23.25;18.67;;;;;;;15.37;85.28;101683.56;5010539;28;20071;-50
2022/07/01 05:26:25;;;;;;;26.95;19.20;;;;;;;15.38;84.85;101682.72;5012786;28;20042;-51
2022/07/01 05:28:52;;;;;;;24.58;17.58;;;;;;;15.36;84.19;101684.41;5004020;28;20398;-48
2022/07/01 05:31:17;;;;;;;24.48;17.25;;;;;;;15.40;84.58;101675.84;5009476;28;20493;-46
2022/07/01 05:33:43;;;;;;;23.73;16.88;;;;;;;15.44;84.82;101672.47;5015690;28;20073;-51
2022/07/01 05:36:09;;;;;;;23.15;17.48;;;;;;;15.39;84.46;101678.41;5026247;28;20406;-49
2022/07/01 05:38:34;;;;;;;25.80;17.27;;;;;;;15.42;84.49;101671.59;5011090;28;22322;-48
2022/07/01 05:41:00;;;;;;;22.80;16.48;;;;;;;15.40;84.72;101672.38;5002630;28;20038;-47
2022/07/01 05:43:25;;;;;;;23.20;16.02;;;;;;;15.40;84.29;101674.97;5008111;28;20405;-49
2022/07/01 05:45:50;;;;;;;23.98;16.45;;;;;;;15.44;84.08;101661.25;5010015;28;20028;-46
2022/07/01 05:48:16;;;;;;;21.98;16.50;;;;;;;15.43;83.87;101678.50;5004533;28;20030;-48
2022/07/01 05:50:43;;;;;;;20.13;15.98;;;;;;;15.41;83.78;101675.03;5005059;28;20085;-51
2022/07/01 05:53:08;;;;;;;22.20;15.85;;;;;;;15.42;83.96;101670.72;5003589;28;20022;-48
2022/07/01 05:55:33;;;;;;;19.02;15.18;;;;;;;15.42;82.97;101679.38;5008812;28;20040;-48
2022/07/01 05:58:01;;;;;;;18.63;14.55;;;;;;;15.42;83.84;101678.50;5010596;28;20426;-45
2022/07/01 06:00:27;;;;;;;20.55;15.10;;;;;;;15.40;84.57;101687.94;5006640;28;20117;-45
2022/07/01 06:02:52;;;;;;;24.05;14.57;;;;;;;15.48;83.83;101684.66;5007390;28;22258;-49
2022/07/01 06:05:17;;;;;;;20.83;13.80;;;;;;;15.55;84.30;101689.13;5010149;28;20124;-45
2022/07/01 06:07:43;;;;;;;21.40;15.27;;;;;;;15.78;85.30;101686.19;5016896;28;20494;-50
2022/07/01 06:10:11;;;;;;;17.90;14.00;;;;;;;15.99;83.32;101686.56;5007988;28;20135;-49
2022/07/01 06:12:38;;;;;;;22.70;15.45;;;;;;;16.19;82.63;101680.88;5015313;28;20508;-50
2022/07/01 06:15:05;;;;;;;17.75;13.80;;;;;;;16.29;82.62;101681.06;5005939;28;20056;-50
2022/07/01 06:17:30;;;;;;;17.38;13.45;;;;;;;16.37;81.95;101678.59;5014523;28;20048;-46
2022/07/01 06:19:56;;;;;;;18.05;14.23;;;;;;;16.30;81.71;101680.22;5007111;28;20025;-48
2022/07/01 06:22:21;;;;;;;18.70;13.60;;;;;;;16.33;80.84;101689.81;5016140;28;20033;-48
2022/07/01 06:24:47;;;;;;;19.88;13.30;;;;;;;16.42;80.35;101683.88;5016680;28;20048;-47
2022/07/01 06:27:12;;;;;;;20.20;13.23;;;;;;;16.44;79.94;101687.38;5013166;28;20038;-49
2022/07/01 06:29:38;;;;;;;17.77;12.90;;;;;;;16.43;79.86;101672.66;5018375;28;20057;-49
2022/07/01 06:32:07;;;;;;;19.58;13.38;;;;;;;16.45;80.54;101677.03;5017522;28;20030;-48
2022/07/01 06:34:34;;;;;;;17.20;12.10;;;;;;;16.50;79.04;101672.81;5016664;28;20040;-48
2022/07/01 06:37:03;;;;;;;19.23;13.45;;;;;;;16.48;80.03;101668.41;5012355;28;20840;-53
2022/07/01 06:39:28;;;;;;;;;;;;;;;16.74;80.03;101666.25;5013962;28;20038;-48
2022/07/01 06:41:55;;;;;;;21.40;13.10;;;;;;;16.71;80.23;101663.63;5012702;28;19945;-47
2022/07/01 06:44:21;;;;;;;15.82;12.45;;;;;;;16.83;78.92;101669.00;5012136;28;20037;-44
2022/07/01 06:46:46;;;;;;;16.27;12.55;;;;;;;16.97;79.85;101675.28;5011905;28;20544;-47
2022/07/01 06:49:12;;;;;;;16.75;12.38;;;;;;;17.10;79.16;101665.94;5024500;28;20052;-46
2022/07/01 06:51:37;;;;;;;21.33;11.77;;;;;;;17.26;78.28;101678.28;5011859;28;20053;-45
2022/07/01 06:54:03;;;;;;;21.48;12.52;;;;;;;17.42;77.83;101669.84;5013212;28;20508;-50
2022/07/01 06:56:28;;;;;;;14.57;10.10;;;;;;;17.53;75.29;101669.97;5013742;28;20037;-52
2022/07/01 06:58:54;;;;;;;13.93;10.65;;;;;;;17.58;74.97;101675.22;5017768;28;20027;-47
2022/07/01 07:01:20;;;;;;;13.65;10.48;;;;;;;17.67;74.47;101677.94;5026918;28;20347;-50
2022/07/01 07:03:45;;;;;;;16.60;10.40;;;;;;;17.80;74.55;101679.00;5025570;28;20057;-50
2022/07/01 07:06:11;;;;;;;12.25;9.65;;;;;;;17.90;72.99;101686.06;5012286;28;20045;-46
2022/07/01 07:08:36;;;;;;;12.35;9.18;;;;;;;17.89;72.19;101684.28;5015804;28;20211;-46
2022/07/01 07:11:02;;;;;;;13.68;9.07;;;;;;;18.03;73.61;101695.75;5019807;28;20038;-48
2022/07/01 07:13:28;;;;;;;13.65;9.07;;;;;;;18.04;71.13;101700.09;5011711;28;20058;-48
2022/07/01 07:15:54;;;;;;;14.38;9.13;;;;;;;18.08;69.65;101707.06;5013374;28;20037;-45
2022/07/01 07:18:19;;;;;;;12.90;8.75;;;;;;;18.23;69.08;101711.56;5013039;28;20034;-48
2022/07/01 07:20:47;;;;;;;14.10;8.10;;;;;;;18.37;71.66;101725.56;5012022;28;20045;-44
2022/07/01 07:23:13;;;;;;;11.93;7.63;;;;;;;18.37;69.88;101714.28;5016929;28;20042;-45
2022/07/01 07:25:38;;;;;;;13.60;8.00;;;;;;;18.26;69.06;101718.50;5014677;28;20400;-47
2022/07/01 07:28:04;;;;;;;10.93;7.18;;;;;;;18.19;70.29;101712.38;5027688;28;20065;-51
2022/07/01 07:30:29;;;;;;;15.25;7.85;;;;;;;18.20;71.80;101709.81;5025818;28;20494;-48
2022/07/01 07:32:54;;;;;;;11.07;6.82;;;;;;;18.29;69.71;101709.00;5027944;28;20037;-49
2022/07/01 07:35:20;;;;;;;10.13;6.65;;;;;;;18.39;69.34;101710.00;5027104;28;20041;-46
2022/07/01 07:37:45;;;;;;;10.05;5.78;;;;;;;18.48;69.17;101712.66;5022175;28;20040;-47
2022/07/01 07:40:12;;;;;;;9.82;5.07;;;;;;;18.54;68.14;101728.34;5022530;28;20048;-50
2022/07/01 07:42:41;;;;;;;9.32;4.57;;;;;;;18.61;68.86;101731.88;5019036;28;20025;-48
2022/07/01 07:45:07;;;;;;;6.60;4.47;;;;;;;18.62;66.76;101736.22;5020493;28;20044;-49
2022/07/01 07:47:36;;;;;;;6.65;4.00;;;;;;;18.60;67.11;101732.72;5015470;28;20037;-48
2022/07/01 07:50:02;;;;;;;9.68;4.00;;;;;;;18.61;66.66;101740.56;5031504;28;20112;-48
2022/07/01 07:52:28;;;;;;;7.65;3.92;;;;;;;18.54;67.27;101733.53;5015140;28;20482;-48
2022/07/01 07:54:54;;;;;;;6.85;3.42;;;;;;;18.55;67.42;101753.53;5016931;28;20036;-48
2022/07/01 07:57:20;;;;;;;7.15;3.22;;;;;;;18.58;66.27;101740.53;5018950;28;20040;-47
2022/07/01 07:59:46;;;;;;;9.43;3.25;;;;;;;18.57;65.75;101741.41;5024039;28;20026;-51
2022/07/01 08:02:11;;;;;;;8.15;3.30;;;;;;;18.68;64.75;101749.31;5025073;28;20032;-48
2022/07/01 08:04:37;;;;;;;9.90;4.15;;;;;;;18.75;65.55;101753.75;5018245;28;20521;-48
2022/07/01 08:07:03;;;;;;;10.48;3.83;;;;;;;18.85;64.60;101752.09;5018145;28;20064;-47
2022/07/01 08:09:28;;;;;;;8.55;3.88;;;;;;;19.00;65.71;101749.63;5020350;28;20041;-47
2022/07/01 08:11:53;;;;;;;7.95;3.60;;;;;;;19.15;64.98;101752.31;5015517;28;20045;-48
2022/07/01 08:14:19;;;;;;;6.30;2.58;;;;;;;19.20;63.28;101753.22;5016858;28;20030;-48
2022/07/01 08:16:44;;;;;;;9.48;2.65;;;;;;;19.32;61.80;101756.78;5018674;28;20441;-45
2022/07/01 08:19:10;;;;;;;5.30;2.22;;;;;;;19.44;62.35;101759.44;5017235;28;20457;-50
2022/07/01 08:21:35;;;;;;;5.72;1.90;;;;;;;19.52;64.00;101749.91;5018991;28;20038;-48
2022/07/01 08:24:00;;;;;;;5.65;2.38;;;;;;;19.55;59.41;101765.59;5018555;28;20036;-47
2022/07/01 08:26:26;;;;;;;4.15;2.05;;;;;;;19.65;59.21;101759.59;5019271;28;20076;-47
2022/07/01 08:28:51;;;;;;;7.22;2.10;;;;;;;19.62;59.39;101777.84;5015810;28;20107;-49
2022/07/01 08:31:17;;;;;;;3.28;1.65;;;;;;;19.69;60.76;101771.78;5019230;28;20030;-48
2022/07/01 08:33:42;;;;;;;3.25;1.70;;;;;;;19.74;60.58;101767.47;5023883;28;20029;-47
2022/07/01 08:36:09;;;;;;;6.20;2.03;;;;;;;19.87;59.07;101776.22;5028680;28;20060;-49
2022/07/01 08:38:35;;;;;;;4.38;1.60;;;;;;;19.95;59.10;101777.13;5014678;28;20140;-50
2022/07/01 08:41:01;;;;;;;4.00;1.70;;;;;;;20.03;58.70;101782.41;5019255;28;20410;-50
2022/07/01 08:43:27;;;;;;;4.78;1.60;;;;;;;20.10;57.82;101784.16;5027837;28;20021;-50
2022/07/01 08:45:53;;;;;;;5.53;1.50;;;;;;;20.07;57.79;101776.28;5017543;28;20117;-49
2022/07/01 08:48:19;;;;;;;2.25;1.23;;;;;;;20.14;56.17;101783.28;5025735;28;20080;-47
2022/07/01 08:50:45;;;;;;;5.70;1.27;;;;;;;20.23;59.32;101791.16;5025782;28;20049;-45
2022/07/01 08:53:12;;;;;;;3.00;1.20;;;;;;;20.20;55.55;101793.75;5026564;28;20544;-52
2022/07/01 08:58:23;;;;;;;5.22;1.20;;;;;;;20.30;55.73;101792.03;5025400;28;20044;-45
2022/07/01 09:00:49;;;;;;;3.08;1.27;;;;;;;20.30;55.66;101795.53;5023201;28;20026;-49
2022/07/01 09:03:14;;;;;;;3.85;1.33;;;;;;;20.42;58.47;101802.53;5025769;28;20025;-51
2022/07/01 09:05:49;;;;;;;4.32;1.40;;;;;;;20.58;58.11;101806.09;5024694;28;20407;-47
2022/07/01 09:08:14;;;;;;;4.93;1.40;;;;;;;20.66;56.45;101804.34;5025034;28;20037;-47
2022/07/01 09:10:39;;;;;;;3.40;1.35;;;;;;;20.79;58.54;101795.63;5024831;28;20072;-50
2022/07/01 09:13:10;;;;;;;4.95;1.27;;;;;;;20.94;57.57;101791.31;5023307;28;20029;-48
2022/07/01 09:15:37;;;;;;;3.65;1.20;;;;;;;21.04;54.76;101800.88;5026460;28;20034;-49
2022/07/01 09:18:10;;;;;;;3.67;1.30;;;;;;;21.06;55.67;101794.78;5011768;28;20029;-48
2022/07/01 09:20:38;;;;;;;4.05;1.05;;;;;;;21.16;55.24;101801.72;5024614;28;20061;-47
2022/07/01 09:23:12;;;;;;;5.88;1.40;;;;;;;21.23;54.46;101789.50;5024817;28;20028;-46
2022/07/01 09:25:43;;;;;;;5.80;1.30;;;;;;;21.41;55.63;101792.13;5023618;28;20037;-48
2022/07/01 09:28:08;;;;;;;5.00;1.65;;;;;;;21.46;52.80;101796.50;5026916;28;20017;-46
2022/07/01 09:30:35;;;;;;;2.25;1.10;;;;;;;21.50;50.87;101793.00;5021872;28;20470;-48
2022/07/01 09:33:20;;;;;;;3.05;1.00;;;;;;;21.61;53.65;101805.19;5023417;28;20067;-48
2022/07/01 09:35:49;;;;;;;3.00;1.13;;;;;;;21.60;53.02;101803.47;5022986;28;20034;-45
2022/07/01 09:38:17;;;;;;;4.07;1.23;;;;;;;21.55;49.96;101809.56;5021198;28;20367;-48
2022/07/01 09:40:52;;;;;;;5.50;1.20;;;;;;;21.69;53.11;101802.56;5026655;28;20056;-46
2022/07/01 09:43:21;;;;;;;4.68;1.30;;;;;;;21.72;51.73;101806.88;5030434;28;20029;-47
2022/07/01 09:45:50;;;;;;;;;;;;;;;21.91;53.74;101804.22;5029675;28;20033;-47
2022/07/01 09:48:15;;;;;;;4.75;0.95;;;;;;;21.81;51.35;101806.88;5024373;28;19909;-50
2022/07/01 09:50:41;;;;;;;2.50;1.10;;;;;;;21.85;50.32;101806.00;5030714;28;20037;-47
2022/07/01 09:53:06;;;;;;;4.72;1.20;;;;;;;22.01;53.51;101804.19;5014107;28;20393;-48
2022/07/01 09:55:34;;;;;;;3.42;1.10;;;;;;;22.12;52.01;101807.66;5029645;28;20156;-49
2022/07/01 09:57:59;;;;;;;4.85;1.30;;;;;;;22.11;47.77;101808.53;5021866;28;20045;-47
2022/07/01 10:00:26;;;;;;;3.85;1.17;;;;;;;22.24;49.39;101806.72;5030958;28;20489;-48
2022/07/01 10:02:54;;;;;;;6.10;1.20;;;;;;;22.25;50.40;101808.47;5028853;28;20504;-50
2022/07/01 10:05:24;;;;;;;4.65;1.38;;;;;;;22.31;50.68;101809.28;5026170;28;20047;-48
2022/07/01 10:07:58;;;;;;;4.60;1.23;;;;;;;22.39;50.62;101814.53;5033263;28;20498;-50
2022/07/01 10:10:53;;;;;;;3.70;1.20;;;;;;;22.46;52.58;101819.72;5026097;28;20056;-45
2022/07/01 10:13:24;;;;;;;3.67;1.27;;;;;;;22.46;50.73;101827.56;5028381;28;20051;-48
2022/07/01 10:15:50;;;;;;;3.63;1.02;;;;;;;22.59;50.57;101830.13;5030061;28;20013;-48
2022/07/01 10:18:26;;;;;;;4.75;1.00;;;;;;;22.72;49.34;101826.53;5024513;28;20056;-48
2022/07/01 10:20:54;;;;;;;3.00;1.08;;;;;;;22.79;46.86;101827.34;5027886;28;20029;-52
2022/07/01 10:23:22;;;;;;;3.42;0.82;;;;;;;22.80;46.90;101835.19;5027019;28;20022;-48
2022/07/01 10:25:51;;;;;;;4.57;1.08;;;;;;;22.90;47.31;101839.53;5024412;28;20029;-49
2022/07/01 10:28:17;;;;;;;3.80;1.00;;;;;;;;;;5023678;28;20363;-47
2022/07/01 10:31:02;;;;;;;6.80;1.23;;;;;;;23.04;49.50;101849.91;5020575;28;20112;-47
2022/07/01 10:33:54;;;;;;;5.45;0.85;;;;;;;23.11;48.43;101850.72;5024172;28;20071;-51
2022/07/01 10:36:22;;;;;;;2.70;0.80;;;;;;;22.93;46.80;101847.41;5031966;28;20028;-49
2022/07/01 10:41:30;;;;;;;3.78;0.90;;;;;;;22.62;48.04;101851.06;5030591;28;20034;-48
2022/07/01 10:43:55;;;;;;;2.95;0.80;;;;;;;22.61;46.39;101854.56;5022901;28;20569;-49
2022/07/01 10:46:40;;;;;;;3.75;0.80;;;;;;;22.71;49.20;101849.25;5026202;28;20108;-48
2022/07/01 10:49:12;;;;;;;3.40;0.80;;;;;;;22.54;46.05;101851.09;5026108;28;20129;-49
2022/07/01 10:51:55;;;;;;;5.30;1.00;;;;;;;22.70;48.05;101844.03;5022428;28;20037;-52
2022/07/01 10:54:36;;;;;;;3.35;0.70;;;;;;;22.80;46.65;101836.94;5025722;28;20533;-49
2022/07/01 10:57:16;;;;;;;2.22;0.70;;;;;;;22.70;48.41;101847.53;5022997;28;20088;-48
2022/07/01 10:59:52;;;;;;;2.67;0.80;;;;;;;22.53;46.25;101845.88;5026286;28;20037;-51
2022/07/01 11:02:40;;;;;;;2.75;0.90;;;;;;;22.45;46.52;101846.81;5028992;28;20083;-47
2022/07/01 11:05:12;;;;;;;3.40;0.80;;;;;;;22.39;45.92;101853.81;5028678;28;20132;-48
2022/07/01 11:07:44;;;;;;;4.65;1.10;;;;;;;22.41;47.15;101852.94;5024996;28;20041;-51
2022/07/01 11:10:10;;;;;;;3.92;0.88;;;;;;;22.47;47.14;101846.78;5024771;28;20164;-47
2022/07/01 11:12:36;;;;;;;6.85;1.10;;;;;;;22.58;46.74;101833.63;5023952;28;20030;-48
2022/07/01 11:15:07;;;;;;;2.58;0.82;;;;;;;22.69;48.38;101832.66;5017881;28;20512;-49
2022/07/01 11:17:41;;;;;;;4.18;0.85;;;;;;;22.70;46.87;101828.31;5018939;28;20115;-49
2022/07/01 11:20:06;;;;;;;4.55;0.90;;;;;;;22.70;47.72;101828.31;5024833;28;20034;-50
2022/07/01 11:22:33;;;;;;;3.10;1.00;;;;;;;22.77;47.02;101821.25;5025580;28;20049;-50
2022/07/01 11:25:07;;;;;;;2.65;0.70;;;;;;;22.83;47.55;101821.22;5026565;28;20398;-51
2022/07/01 11:27:33;;;;;;;3.95;0.82;;;;;;;22.79;45.08;101832.59;5023663;28;20401;-45